Saint Louis, Missouri
Current Conditions -  °F | °C
As of 1:53 PM on Thursday 27 Nov 2014 (Local Time) from KCPS Reporting Station
Few Clouds Few Clouds  
Wind Chill: 24°   Ceiling: Unl
Heat Index: 34°   Visibility: 10mi
Dew Point: 23°   Wind: 15mph
Humidity: 64%   Direction: 320°NW
Pressure: 30.46"   Gusts: NA
Location:  38.63°N, 90.24°W
Report Text: KCPS 271953Z 32013KT 10SM FEW038 01/M05 A3046 RMK AO2 SLP319 T00111050
Loading
Personal Weather Stations






























Interactive Weather Map New forecast layout! Learn more

10-Day Weather Forecast

Advertisements
Track Severe Weather on mobile